sensor_id;sensor_type;location;lat;lon;timestamp;P1;durP1;ratioP1;P2;durP2;ratioP2
22786;SDS011;63134;52.020;4.714;2023-04-28T00:01:48;8.85;;;6.10;;
22786;SDS011;63134;52.020;4.714;2023-04-28T00:04:34;10.05;;;5.75;;
22786;SDS011;63134;52.020;4.714;2023-04-28T00:07:20;10.35;;;6.55;;
22786;SDS011;63134;52.020;4.714;2023-04-28T00:10:05;15.85;;;6.20;;
22786;SDS011;63134;52.020;4.714;2023-04-28T00:12:51;12.82;;;6.60;;
22786;SDS011;63134;52.020;4.714;2023-04-28T00:15:39;12.55;;;6.45;;
22786;SDS011;63134;52.020;4.714;2023-04-28T00:18:25;11.57;;;6.80;;
22786;SDS011;63134;52.020;4.714;2023-04-28T00:21:16;10.45;;;6.35;;
22786;SDS011;63134;52.020;4.714;2023-04-28T00:24:03;10.85;;;6.68;;
22786;SDS011;63134;52.020;4.714;2023-04-28T00:26:51;13.30;;;7.18;;
22786;SDS011;63134;52.020;4.714;2023-04-28T00:29:36;10.25;;;7.15;;
22786;SDS011;63134;52.020;4.714;2023-04-28T00:32:22;11.00;;;6.63;;
22786;SDS011;63134;52.020;4.714;2023-04-28T00:35:10;10.77;;;6.82;;
22786;SDS011;63134;52.020;4.714;2023-04-28T00:37:57;8.43;;;6.68;;
22786;SDS011;63134;52.020;4.714;2023-04-28T00:40:44;15.25;;;6.82;;
22786;SDS011;63134;52.020;4.714;2023-04-28T00:43:30;9.73;;;6.18;;
22786;SDS011;63134;52.020;4.714;2023-04-28T00:46:20;17.35;;;7.57;;
22786;SDS011;63134;52.020;4.714;2023-04-28T00:49:16;10.27;;;6.80;;
22786;SDS011;63134;52.020;4.714;2023-04-28T00:52:05;9.32;;;7.35;;
22786;SDS011;63134;52.020;4.714;2023-04-28T00:54:53;11.88;;;7.28;;
22786;SDS011;63134;52.020;4.714;2023-04-28T00:57:38;9.45;;;7.22;;
22786;SDS011;63134;52.020;4.714;2023-04-28T01:00:31;12.63;;;7.38;;
22786;SDS011;63134;52.020;4.714;2023-04-28T01:03:42;12.63;;;7.35;;
22786;SDS011;63134;52.020;4.714;2023-04-28T01:06:30;14.57;;;8.15;;
22786;SDS011;63134;52.020;4.714;2023-04-28T01:09:18;13.88;;;7.70;;
22786;SDS011;63134;52.020;4.714;2023-04-28T01:12:06;9.55;;;7.40;;
22786;SDS011;63134;52.020;4.714;2023-04-28T01:15:00;13.40;;;7.45;;
22786;SDS011;63134;52.020;4.714;2023-04-28T01:17:50;10.52;;;7.57;;
22786;SDS011;63134;52.020;4.714;2023-04-28T01:20:35;11.05;;;7.60;;
22786;SDS011;63134;52.020;4.714;2023-04-28T01:23:26;12.23;;;9.00;;
22786;SDS011;63134;52.020;4.714;2023-04-28T01:26:12;11.70;;;7.95;;
22786;SDS011;63134;52.020;4.714;2023-04-28T01:29:01;10.43;;;7.60;;
22786;SDS011;63134;52.020;4.714;2023-04-28T01:31:46;10.73;;;7.25;;
22786;SDS011;63134;52.020;4.714;2023-04-28T01:34:34;13.82;;;7.68;;
22786;SDS011;63134;52.020;4.714;2023-04-28T01:37:22;14.60;;;7.93;;
22786;SDS011;63134;52.020;4.714;2023-04-28T01:40:11;15.15;;;8.05;;
22786;SDS011;63134;52.020;4.714;2023-04-28T01:43:04;11.98;;;7.75;;
22786;SDS011;63134;52.020;4.714;2023-04-28T01:45:50;13.48;;;8.18;;
22786;SDS011;63134;52.020;4.714;2023-04-28T01:48:36;13.38;;;8.60;;
22786;SDS011;63134;52.020;4.714;2023-04-28T01:51:24;11.18;;;7.60;;
22786;SDS011;63134;52.020;4.714;2023-04-28T01:54:11;16.65;;;7.80;;
22786;SDS011;63134;52.020;4.714;2023-04-28T01:56:57;12.18;;;7.85;;
22786;SDS011;63134;52.020;4.714;2023-04-28T01:59:48;11.23;;;7.68;;
22786;SDS011;63134;52.020;4.714;2023-04-28T02:02:34;15.38;;;7.45;;
22786;SDS011;63134;52.020;4.714;2023-04-28T02:05:20;11.05;;;6.88;;
22786;SDS011;63134;52.020;4.714;2023-04-28T02:08:08;12.85;;;7.75;;
22786;SDS011;63134;52.020;4.714;2023-04-28T02:10:53;12.88;;;7.43;;
22786;SDS011;63134;52.020;4.714;2023-04-28T02:13:41;9.95;;;7.40;;
22786;SDS011;63134;52.020;4.714;2023-04-28T02:16:31;9.20;;;7.38;;
22786;SDS011;63134;52.020;4.714;2023-04-28T02:19:17;11.68;;;7.88;;
22786;SDS011;63134;52.020;4.714;2023-04-28T02:22:03;12.25;;;7.32;;
22786;SDS011;63134;52.020;4.714;2023-04-28T02:24:49;13.23;;;7.68;;
22786;SDS011;63134;52.020;4.714;2023-04-28T02:27:36;19.45;;;7.68;;
22786;SDS011;63134;52.020;4.714;2023-04-28T02:30:23;8.80;;;6.97;;
22786;SDS011;63134;52.020;4.714;2023-04-28T02:33:09;12.38;;;7.30;;
22786;SDS011;63134;52.020;4.714;2023-04-28T02:35:58;10.30;;;7.72;;
22786;SDS011;63134;52.020;4.714;2023-04-28T02:38:44;11.95;;;7.00;;
22786;SDS011;63134;52.020;4.714;2023-04-28T02:41:30;11.57;;;7.40;;
22786;SDS011;63134;52.020;4.714;2023-04-28T02:44:18;14.35;;;7.90;;
22786;SDS011;63134;52.020;4.714;2023-04-28T02:47:04;12.75;;;7.63;;
22786;SDS011;63134;52.020;4.714;2023-04-28T02:49:53;11.00;;;7.40;;
22786;SDS011;63134;52.020;4.714;2023-04-28T02:52:38;10.23;;;7.05;;
22786;SDS011;63134;52.020;4.714;2023-04-28T02:55:24;10.48;;;7.10;;
22786;SDS011;63134;52.020;4.714;2023-04-28T02:58:11;13.05;;;7.45;;
22786;SDS011;63134;52.020;4.714;2023-04-28T03:00:57;20.13;;;7.28;;
22786;SDS011;63134;52.020;4.714;2023-04-28T03:03:43;14.40;;;7.38;;
22786;SDS011;63134;52.020;4.714;2023-04-28T03:06:29;12.05;;;7.25;;
22786;SDS011;63134;52.020;4.714;2023-04-28T03:09:16;10.85;;;7.10;;
22786;SDS011;63134;52.020;4.714;2023-04-28T03:12:02;9.65;;;6.70;;
22786;SDS011;63134;52.020;4.714;2023-04-28T03:14:50;13.43;;;7.30;;
22786;SDS011;63134;52.020;4.714;2023-04-28T03:17:37;9.07;;;6.90;;
22786;SDS011;63134;52.020;4.714;2023-04-28T03:20:27;12.05;;;7.28;;
22786;SDS011;63134;52.020;4.714;2023-04-28T03:23:14;11.60;;;6.93;;
22786;SDS011;63134;52.020;4.714;2023-04-28T03:26:02;9.48;;;7.47;;
22786;SDS011;63134;52.020;4.714;2023-04-28T03:28:49;17.08;;;7.57;;
22786;SDS011;63134;52.020;4.714;2023-04-28T03:31:35;8.82;;;6.88;;
22786;SDS011;63134;52.020;4.714;2023-04-28T03:34:21;10.98;;;7.00;;
22786;SDS011;63134;52.020;4.714;2023-04-28T03:37:06;9.90;;;6.60;;
22786;SDS011;63134;52.020;4.714;2023-04-28T03:39:55;19.45;;;7.55;;
22786;SDS011;63134;52.020;4.714;2023-04-28T03:42:41;8.32;;;6.63;;
22786;SDS011;63134;52.020;4.714;2023-04-28T03:45:30;12.70;;;8.02;;
22786;SDS011;63134;52.020;4.714;2023-04-28T03:48:15;8.75;;;6.22;;
22786;SDS011;63134;52.020;4.714;2023-04-28T03:51:01;9.45;;;7.32;;
22786;SDS011;63134;52.020;4.714;2023-04-28T03:53:48;12.35;;;7.45;;
22786;SDS011;63134;52.020;4.714;2023-04-28T03:56:35;11.43;;;6.70;;
22786;SDS011;63134;52.020;4.714;2023-04-28T03:59:26;8.90;;;6.53;;
22786;SDS011;63134;52.020;4.714;2023-04-28T04:02:11;18.90;;;8.27;;
22786;SDS011;63134;52.020;4.714;2023-04-28T04:04:57;10.52;;;7.13;;
22786;SDS011;63134;52.020;4.714;2023-04-28T04:07:42;12.43;;;7.45;;
22786;SDS011;63134;52.020;4.714;2023-04-28T04:10:29;11.75;;;7.72;;
22786;SDS011;63134;52.020;4.714;2023-04-28T04:13:15;11.05;;;7.70;;
22786;SDS011;63134;52.020;4.714;2023-04-28T04:16:01;13.63;;;7.43;;
22786;SDS011;63134;52.020;4.714;2023-04-28T04:18:46;12.23;;;7.45;;
22786;SDS011;63134;52.020;4.714;2023-04-28T04:21:36;14.48;;;7.82;;
22786;SDS011;63134;52.020;4.714;2023-04-28T04:24:24;10.07;;;7.70;;
22786;SDS011;63134;52.020;4.714;2023-04-28T04:27:12;11.52;;;7.82;;
22786;SDS011;63134;52.020;4.714;2023-04-28T04:29:58;10.73;;;8.35;;
22786;SDS011;63134;52.020;4.714;2023-04-28T04:32:44;11.82;;;7.68;;
22786;SDS011;63134;52.020;4.714;2023-04-28T04:35:29;10.82;;;8.00;;
22786;SDS011;63134;52.020;4.714;2023-04-28T04:38:16;10.25;;;7.70;;
22786;SDS011;63134;52.020;4.714;2023-04-28T04:41:03;12.77;;;7.15;;
22786;SDS011;63134;52.020;4.714;2023-04-28T04:43:49;11.75;;;7.82;;
22786;SDS011;63134;52.020;4.714;2023-04-28T04:46:35;12.88;;;8.50;;
22786;SDS011;63134;52.020;4.714;2023-04-28T04:49:21;13.32;;;8.38;;
22786;SDS011;63134;52.020;4.714;2023-04-28T04:52:07;12.02;;;8.38;;
22786;SDS011;63134;52.020;4.714;2023-04-28T04:54:53;14.45;;;8.50;;
22786;SDS011;63134;52.020;4.714;2023-04-28T04:57:41;16.13;;;8.32;;
22786;SDS011;63134;52.020;4.714;2023-04-28T05:00:59;10.55;;;7.95;;
22786;SDS011;63134;52.020;4.714;2023-04-28T05:03:44;12.48;;;8.60;;
22786;SDS011;63134;52.020;4.714;2023-04-28T05:06:31;14.75;;;8.95;;
22786;SDS011;63134;52.020;4.714;2023-04-28T05:09:19;14.70;;;8.93;;
22786;SDS011;63134;52.020;4.714;2023-04-28T05:12:06;15.93;;;8.77;;
22786;SDS011;63134;52.020;4.714;2023-04-28T05:14:52;13.02;;;9.18;;
22786;SDS011;63134;52.020;4.714;2023-04-28T05:17:38;12.35;;;9.55;;
22786;SDS011;63134;52.020;4.714;2023-04-28T05:20:24;12.52;;;9.57;;
22786;SDS011;63134;52.020;4.714;2023-04-28T05:23:10;16.45;;;10.00;;
22786;SDS011;63134;52.020;4.714;2023-04-28T05:25:55;13.60;;;9.63;;
22786;SDS011;63134;52.020;4.714;2023-04-28T05:28:42;16.33;;;9.73;;
22786;SDS011;63134;52.020;4.714;2023-04-28T05:31:28;17.25;;;10.25;;
22786;SDS011;63134;52.020;4.714;2023-04-28T05:34:13;12.50;;;9.75;;
22786;SDS011;63134;52.020;4.714;2023-04-28T05:37:01;19.95;;;10.65;;
22786;SDS011;63134;52.020;4.714;2023-04-28T05:39:47;14.57;;;10.57;;
22786;SDS011;63134;52.020;4.714;2023-04-28T05:42:33;19.17;;;11.25;;
22786;SDS011;63134;52.020;4.714;2023-04-28T05:45:19;23.30;;;11.95;;
22786;SDS011;63134;52.020;4.714;2023-04-28T05:48:11;19.60;;;12.05;;
22786;SDS011;63134;52.020;4.714;2023-04-28T05:50:57;15.20;;;11.18;;
22786;SDS011;63134;52.020;4.714;2023-04-28T05:53:43;18.45;;;12.10;;
22786;SDS011;63134;52.020;4.714;2023-04-28T05:56:33;16.42;;;11.40;;
22786;SDS011;63134;52.020;4.714;2023-04-28T05:59:19;17.08;;;12.38;;
22786;SDS011;63134;52.020;4.714;2023-04-28T06:02:05;22.45;;;12.73;;
22786;SDS011;63134;52.020;4.714;2023-04-28T06:04:51;21.38;;;11.70;;
22786;SDS011;63134;52.020;4.714;2023-04-28T06:07:39;18.70;;;12.48;;
22786;SDS011;63134;52.020;4.714;2023-04-28T06:10:25;19.25;;;12.38;;
22786;SDS011;63134;52.020;4.714;2023-04-28T06:13:11;20.05;;;12.57;;
22786;SDS011;63134;52.020;4.714;2023-04-28T06:15:59;20.15;;;12.20;;
22786;SDS011;63134;52.020;4.714;2023-04-28T06:18:45;21.02;;;12.70;;
22786;SDS011;63134;52.020;4.714;2023-04-28T06:21:35;19.10;;;12.40;;
22786;SDS011;63134;52.020;4.714;2023-04-28T06:24:20;17.55;;;12.55;;
22786;SDS011;63134;52.020;4.714;2023-04-28T06:27:10;16.52;;;12.55;;
22786;SDS011;63134;52.020;4.714;2023-04-28T06:29:56;24.35;;;13.75;;
22786;SDS011;63134;52.020;4.714;2023-04-28T06:32:43;24.25;;;13.55;;
22786;SDS011;63134;52.020;4.714;2023-04-28T06:35:28;17.70;;;12.95;;
22786;SDS011;63134;52.020;4.714;2023-04-28T06:38:14;18.15;;;13.13;;
22786;SDS011;63134;52.020;4.714;2023-04-28T06:41:02;19.00;;;13.57;;
22786;SDS011;63134;52.020;4.714;2023-04-28T06:43:50;23.25;;;13.68;;
22786;SDS011;63134;52.020;4.714;2023-04-28T06:46:43;18.65;;;12.93;;
22786;SDS011;63134;52.020;4.714;2023-04-28T06:49:30;18.17;;;13.90;;
22786;SDS011;63134;52.020;4.714;2023-04-28T06:52:17;18.23;;;13.07;;
22786;SDS011;63134;52.020;4.714;2023-04-28T06:55:06;20.65;;;14.35;;
22786;SDS011;63134;52.020;4.714;2023-04-28T06:57:55;19.75;;;14.38;;
22786;SDS011;63134;52.020;4.714;2023-04-28T07:00:40;18.88;;;14.20;;
22786;SDS011;63134;52.020;4.714;2023-04-28T07:03:27;16.83;;;14.48;;
22786;SDS011;63134;52.020;4.714;2023-04-28T07:06:13;23.00;;;15.77;;
22786;SDS011;63134;52.020;4.714;2023-04-28T07:09:01;19.52;;;14.98;;
22786;SDS011;63134;52.020;4.714;2023-04-28T07:11:49;22.10;;;14.75;;
22786;SDS011;63134;52.020;4.714;2023-04-28T07:14:35;24.10;;;17.25;;
22786;SDS011;63134;52.020;4.714;2023-04-28T07:17:22;26.25;;;16.48;;
22786;SDS011;63134;52.020;4.714;2023-04-28T07:20:07;26.40;;;17.88;;
22786;SDS011;63134;52.020;4.714;2023-04-28T07:22:55;27.33;;;17.70;;
22786;SDS011;63134;52.020;4.714;2023-04-28T07:25:42;24.02;;;16.90;;
22786;SDS011;63134;52.020;4.714;2023-04-28T07:28:28;24.45;;;16.95;;
22786;SDS011;63134;52.020;4.714;2023-04-28T07:31:16;27.20;;;18.33;;
22786;SDS011;63134;52.020;4.714;2023-04-28T07:34:01;28.52;;;19.45;;
22786;SDS011;63134;52.020;4.714;2023-04-28T07:36:47;26.95;;;19.80;;
22786;SDS011;63134;52.020;4.714;2023-04-28T07:39:34;27.60;;;19.13;;
22786;SDS011;63134;52.020;4.714;2023-04-28T07:42:22;27.58;;;20.73;;
22786;SDS011;63134;52.020;4.714;2023-04-28T07:45:13;29.05;;;20.58;;
22786;SDS011;63134;52.020;4.714;2023-04-28T07:48:02;29.00;;;21.05;;
22786;SDS011;63134;52.020;4.714;2023-04-28T07:50:48;28.95;;;21.55;;
22786;SDS011;63134;52.020;4.714;2023-04-28T07:53:34;31.48;;;21.60;;
22786;SDS011;63134;52.020;4.714;2023-04-28T07:56:20;27.38;;;22.33;;
22786;SDS011;63134;52.020;4.714;2023-04-28T07:59:07;28.45;;;20.23;;
22786;SDS011;63134;52.020;4.714;2023-04-28T08:01:52;30.02;;;20.95;;
22786;SDS011;63134;52.020;4.714;2023-04-28T08:04:43;29.13;;;20.88;;
22786;SDS011;63134;52.020;4.714;2023-04-28T08:07:30;29.60;;;20.88;;
22786;SDS011;63134;52.020;4.714;2023-04-28T08:10:17;28.30;;;20.17;;
22786;SDS011;63134;52.020;4.714;2023-04-28T08:13:02;23.80;;;19.48;;
22786;SDS011;63134;52.020;4.714;2023-04-28T08:15:50;27.70;;;20.83;;
22786;SDS011;63134;52.020;4.714;2023-04-28T08:18:47;31.88;;;20.98;;
22786;SDS011;63134;52.020;4.714;2023-04-28T08:21:36;31.42;;;21.75;;
22786;SDS011;63134;52.020;4.714;2023-04-28T08:24:21;31.50;;;22.25;;
22786;SDS011;63134;52.020;4.714;2023-04-28T08:27:07;32.10;;;22.92;;
22786;SDS011;63134;52.020;4.714;2023-04-28T08:29:54;30.20;;;22.90;;
22786;SDS011;63134;52.020;4.714;2023-04-28T08:32:40;30.02;;;23.40;;
22786;SDS011;63134;52.020;4.714;2023-04-28T08:35:26;32.30;;;23.08;;
22786;SDS011;63134;52.020;4.714;2023-04-28T08:38:12;31.13;;;24.23;;
22786;SDS011;63134;52.020;4.714;2023-04-28T08:40:59;41.75;;;26.65;;
22786;SDS011;63134;52.020;4.714;2023-04-28T08:43:48;34.83;;;26.27;;
22786;SDS011;63134;52.020;4.714;2023-04-28T08:46:34;34.00;;;24.58;;
22786;SDS011;63134;52.020;4.714;2023-04-28T08:49:28;39.65;;;25.77;;
22786;SDS011;63134;52.020;4.714;2023-04-28T08:52:19;37.13;;;25.27;;
22786;SDS011;63134;52.020;4.714;2023-04-28T08:55:08;32.58;;;26.38;;
22786;SDS011;63134;52.020;4.714;2023-04-28T08:57:55;33.15;;;26.63;;
22786;SDS011;63134;52.020;4.714;2023-04-28T09:00:41;32.75;;;24.92;;
22786;SDS011;63134;52.020;4.714;2023-04-28T09:03:30;33.72;;;25.27;;
22786;SDS011;63134;52.020;4.714;2023-04-28T09:06:17;31.33;;;24.92;;
22786;SDS011;63134;52.020;4.714;2023-04-28T09:12:06;30.35;;;24.58;;
22786;SDS011;63134;52.020;4.714;2023-04-28T09:14:53;28.08;;;23.17;;
22786;SDS011;63134;52.020;4.714;2023-04-28T09:17:48;29.02;;;23.38;;
22786;SDS011;63134;52.020;4.714;2023-04-28T09:20:35;25.65;;;22.02;;
22786;SDS011;63134;52.020;4.714;2023-04-28T09:23:21;25.42;;;20.92;;
22786;SDS011;63134;52.020;4.714;2023-04-28T09:26:06;24.83;;;19.77;;
22786;SDS011;63134;52.020;4.714;2023-04-28T09:28:54;25.88;;;20.00;;
22786;SDS011;63134;52.020;4.714;2023-04-28T09:37:56;21.42;;;17.55;;
22786;SDS011;63134;52.020;4.714;2023-04-28T09:40:50;20.75;;;18.23;;
22786;SDS011;63134;52.020;4.714;2023-04-28T09:46:27;20.60;;;16.58;;
22786;SDS011;63134;52.020;4.714;2023-04-28T09:49:14;21.58;;;17.27;;
22786;SDS011;63134;52.020;4.714;2023-04-28T09:52:10;18.90;;;16.42;;
22786;SDS011;63134;52.020;4.714;2023-04-28T09:54:57;19.73;;;16.60;;
22786;SDS011;63134;52.020;4.714;2023-04-28T09:57:46;19.08;;;14.88;;
22786;SDS011;63134;52.020;4.714;2023-04-28T10:00:34;17.42;;;14.40;;
22786;SDS011;63134;52.020;4.714;2023-04-28T10:03:25;15.40;;;11.68;;
22786;SDS011;63134;52.020;4.714;2023-04-28T10:06:15;14.40;;;11.63;;
22786;SDS011;63134;52.020;4.714;2023-04-28T10:09:02;12.93;;;11.10;;
22786;SDS011;63134;52.020;4.714;2023-04-28T10:11:50;13.77;;;11.70;;
22786;SDS011;63134;52.020;4.714;2023-04-28T10:14:37;10.02;;;8.90;;
22786;SDS011;63134;52.020;4.714;2023-04-28T10:17:30;9.65;;;7.72;;
22786;SDS011;63134;52.020;4.714;2023-04-28T10:20:17;5.82;;;5.18;;
22786;SDS011;63134;52.020;4.714;2023-04-28T10:26:16;6.90;;;5.65;;
22786;SDS011;63134;52.020;4.714;2023-04-28T10:29:10;7.00;;;4.43;;
22786;SDS011;63134;52.020;4.714;2023-04-28T10:38:15;5.75;;;3.50;;
22786;SDS011;63134;52.020;4.714;2023-04-28T10:41:01;7.40;;;3.88;;
22786;SDS011;63134;52.020;4.714;2023-04-28T10:43:47;4.55;;;3.17;;
22786;SDS011;63134;52.020;4.714;2023-04-28T10:46:58;5.18;;;3.15;;
22786;SDS011;63134;52.020;4.714;2023-04-28T10:55:33;8.40;;;4.03;;
22786;SDS011;63134;52.020;4.714;2023-04-28T11:04:18;6.72;;;4.70;;
22786;SDS011;63134;52.020;4.714;2023-04-28T11:07:10;9.88;;;6.15;;
22786;SDS011;63134;52.020;4.714;2023-04-28T11:16:13;9.25;;;5.40;;
22786;SDS011;63134;52.020;4.714;2023-04-28T11:19:00;9.60;;;6.68;;
22786;SDS011;63134;52.020;4.714;2023-04-28T11:21:50;8.13;;;6.53;;
22786;SDS011;63134;52.020;4.714;2023-04-28T11:24:37;9.23;;;6.97;;
22786;SDS011;63134;52.020;4.714;2023-04-28T11:27:27;7.85;;;7.05;;
22786;SDS011;63134;52.020;4.714;2023-04-28T11:30:22;11.52;;;8.10;;
22786;SDS011;63134;52.020;4.714;2023-04-28T11:33:09;10.60;;;8.02;;
22786;SDS011;63134;52.020;4.714;2023-04-28T11:35:55;10.38;;;9.00;;
22786;SDS011;63134;52.020;4.714;2023-04-28T11:38:42;7.05;;;5.35;;
22786;SDS011;63134;52.020;4.714;2023-04-28T11:41:28;11.20;;;4.50;;
22786;SDS011;63134;52.020;4.714;2023-04-28T11:44:16;5.80;;;3.30;;
22786;SDS011;63134;52.020;4.714;2023-04-28T11:47:04;3.35;;;2.20;;
22786;SDS011;63134;52.020;4.714;2023-04-28T11:49:53;2.22;;;1.70;;
22786;SDS011;63134;52.020;4.714;2023-04-28T11:52:48;2.17;;;1.60;;
22786;SDS011;63134;52.020;4.714;2023-04-28T11:55:37;6.63;;;2.08;;
22786;SDS011;63134;52.020;4.714;2023-04-28T11:58:23;2.17;;;1.80;;
22786;SDS011;63134;52.020;4.714;2023-04-28T12:01:11;4.82;;;2.05;;
22786;SDS011;63134;52.020;4.714;2023-04-28T12:03:59;3.22;;;2.90;;
22786;SDS011;63134;52.020;4.714;2023-04-28T12:06:56;3.72;;;2.97;;
22786;SDS011;63134;52.020;4.714;2023-04-28T12:09:47;3.20;;;2.30;;
22786;SDS011;63134;52.020;4.714;2023-04-28T12:12:54;4.45;;;3.10;;
22786;SDS011;63134;52.020;4.714;2023-04-28T12:15:40;3.20;;;2.90;;
22786;SDS011;63134;52.020;4.714;2023-04-28T12:18:27;2.20;;;1.90;;
22786;SDS011;63134;52.020;4.714;2023-04-28T12:21:19;2.70;;;2.50;;
22786;SDS011;63134;52.020;4.714;2023-04-28T12:24:17;2.35;;;2.15;;
22786;SDS011;63134;52.020;4.714;2023-04-28T12:27:14;2.22;;;2.03;;
22786;SDS011;63134;52.020;4.714;2023-04-28T12:30:00;2.67;;;2.42;;
22786;SDS011;63134;52.020;4.714;2023-04-28T12:32:46;3.42;;;1.77;;
22786;SDS011;63134;52.020;4.714;2023-04-28T12:35:32;19.55;;;4.22;;
22786;SDS011;63134;52.020;4.714;2023-04-28T12:38:17;3.08;;;2.83;;
22786;SDS011;63134;52.020;4.714;2023-04-28T12:41:03;3.78;;;2.50;;
22786;SDS011;63134;52.020;4.714;2023-04-28T12:43:50;4.45;;;2.25;;
22786;SDS011;63134;52.020;4.714;2023-04-28T12:46:35;2.10;;;1.90;;
22786;SDS011;63134;52.020;4.714;2023-04-28T12:49:21;2.83;;;2.05;;
22786;SDS011;63134;52.020;4.714;2023-04-28T12:52:07;3.85;;;2.50;;
22786;SDS011;63134;52.020;4.714;2023-04-28T12:54:52;3.58;;;2.92;;
22786;SDS011;63134;52.020;4.714;2023-04-28T12:57:37;15.02;;;5.93;;
22786;SDS011;63134;52.020;4.714;2023-04-28T13:00:23;10.40;;;5.95;;
22786;SDS011;63134;52.020;4.714;2023-04-28T13:03:13;10.50;;;6.38;;
22786;SDS011;63134;52.020;4.714;2023-04-28T13:06:00;11.85;;;7.15;;
22786;SDS011;63134;52.020;4.714;2023-04-28T13:08:48;17.13;;;8.15;;
22786;SDS011;63134;52.020;4.714;2023-04-28T13:11:34;31.08;;;9.68;;
22786;SDS011;63134;52.020;4.714;2023-04-28T13:14:20;13.43;;;7.70;;
22786;SDS011;63134;52.020;4.714;2023-04-28T13:17:06;13.27;;;8.68;;
22786;SDS011;63134;52.020;4.714;2023-04-28T13:19:53;18.50;;;10.23;;
22786;SDS011;63134;52.020;4.714;2023-04-28T13:22:38;31.23;;;11.70;;
22786;SDS011;63134;52.020;4.714;2023-04-28T13:25:23;12.05;;;9.70;;
22786;SDS011;63134;52.020;4.714;2023-04-28T13:28:09;11.80;;;10.18;;
22786;SDS011;63134;52.020;4.714;2023-04-28T13:30:54;31.73;;;12.63;;
22786;SDS011;63134;52.020;4.714;2023-04-28T13:33:40;17.52;;;12.00;;
22786;SDS011;63134;52.020;4.714;2023-04-28T13:36:25;20.08;;;11.20;;
22786;SDS011;63134;52.020;4.714;2023-04-28T13:39:13;24.23;;;12.25;;
22786;SDS011;63134;52.020;4.714;2023-04-28T13:41:58;63.88;;;16.88;;
22786;SDS011;63134;52.020;4.714;2023-04-28T13:44:45;25.02;;;14.02;;
22786;SDS011;63134;52.020;4.714;2023-04-28T13:47:33;19.10;;;14.13;;
22786;SDS011;63134;52.020;4.714;2023-04-28T13:50:18;20.83;;;14.65;;
22786;SDS011;63134;52.020;4.714;2023-04-28T13:53:04;27.05;;;16.75;;
22786;SDS011;63134;52.020;4.714;2023-04-28T13:55:49;24.88;;;16.60;;
22786;SDS011;63134;52.020;4.714;2023-04-28T13:58:37;24.48;;;15.43;;
22786;SDS011;63134;52.020;4.714;2023-04-28T14:01:23;22.17;;;15.48;;
22786;SDS011;63134;52.020;4.714;2023-04-28T14:04:09;25.25;;;16.08;;
22786;SDS011;63134;52.020;4.714;2023-04-28T14:06:56;19.15;;;14.50;;
22786;SDS011;63134;52.020;4.714;2023-04-28T14:09:42;21.98;;;14.80;;
22786;SDS011;63134;52.020;4.714;2023-04-28T14:12:28;26.98;;;15.45;;
22786;SDS011;63134;52.020;4.714;2023-04-28T14:15:14;23.50;;;16.60;;
22786;SDS011;63134;52.020;4.714;2023-04-28T14:18:00;20.27;;;15.68;;
22786;SDS011;63134;52.020;4.714;2023-04-28T14:20:55;28.45;;;15.20;;
22786;SDS011;63134;52.020;4.714;2023-04-28T14:23:41;18.52;;;14.60;;
22786;SDS011;63134;52.020;4.714;2023-04-28T14:26:26;26.67;;;15.25;;
22786;SDS011;63134;52.020;4.714;2023-04-28T14:29:12;17.20;;;13.50;;
22786;SDS011;63134;52.020;4.714;2023-04-28T14:31:58;19.65;;;12.48;;
22786;SDS011;63134;52.020;4.714;2023-04-28T14:34:43;20.05;;;12.45;;
22786;SDS011;63134;52.020;4.714;2023-04-28T14:37:31;21.38;;;13.05;;
22786;SDS011;63134;52.020;4.714;2023-04-28T14:40:17;27.08;;;13.15;;
22786;SDS011;63134;52.020;4.714;2023-04-28T14:43:03;27.15;;;14.13;;
22786;SDS011;63134;52.020;4.714;2023-04-28T14:45:48;26.83;;;14.80;;
22786;SDS011;63134;52.020;4.714;2023-04-28T14:48:34;24.95;;;16.55;;
22786;SDS011;63134;52.020;4.714;2023-04-28T14:51:20;28.65;;;15.73;;
22786;SDS011;63134;52.020;4.714;2023-04-28T14:54:07;27.27;;;15.85;;
22786;SDS011;63134;52.020;4.714;2023-04-28T14:56:55;25.60;;;15.98;;
22786;SDS011;63134;52.020;4.714;2023-04-28T14:59:40;28.35;;;16.42;;
22786;SDS011;63134;52.020;4.714;2023-04-28T15:02:26;26.52;;;15.32;;
22786;SDS011;63134;52.020;4.714;2023-04-28T15:05:13;22.25;;;14.20;;
22786;SDS011;63134;52.020;4.714;2023-04-28T15:07:59;23.13;;;12.57;;
22786;SDS011;63134;52.020;4.714;2023-04-28T15:10:44;23.38;;;11.82;;
22786;SDS011;63134;52.020;4.714;2023-04-28T15:13:30;21.60;;;12.25;;
22786;SDS011;63134;52.020;4.714;2023-04-28T15:16:15;25.00;;;10.88;;
22786;SDS011;63134;52.020;4.714;2023-04-28T15:22:12;20.63;;;10.18;;
22786;SDS011;63134;52.020;4.714;2023-04-28T15:25:00;14.20;;;9.88;;
22786;SDS011;63134;52.020;4.714;2023-04-28T15:27:45;18.08;;;10.27;;
22786;SDS011;63134;52.020;4.714;2023-04-28T15:30:31;15.65;;;10.52;;
22786;SDS011;63134;52.020;4.714;2023-04-28T15:33:18;16.52;;;11.20;;
22786;SDS011;63134;52.020;4.714;2023-04-28T15:36:04;18.75;;;10.98;;
22786;SDS011;63134;52.020;4.714;2023-04-28T15:38:49;16.70;;;11.65;;
22786;SDS011;63134;52.020;4.714;2023-04-28T15:41:35;21.40;;;11.70;;
22786;SDS011;63134;52.020;4.714;2023-04-28T15:44:21;16.67;;;11.35;;
22786;SDS011;63134;52.020;4.714;2023-04-28T15:47:07;18.75;;;11.35;;
22786;SDS011;63134;52.020;4.714;2023-04-28T15:49:53;22.23;;;12.23;;
22786;SDS011;63134;52.020;4.714;2023-04-28T15:52:42;19.60;;;12.07;;
22786;SDS011;63134;52.020;4.714;2023-04-28T15:55:31;24.02;;;13.63;;
22786;SDS011;63134;52.020;4.714;2023-04-28T15:58:16;23.98;;;13.82;;
22786;SDS011;63134;52.020;4.714;2023-04-28T16:01:02;27.55;;;14.00;;
22786;SDS011;63134;52.020;4.714;2023-04-28T16:03:50;21.60;;;14.32;;
22786;SDS011;63134;52.020;4.714;2023-04-28T16:06:36;23.95;;;15.15;;
22786;SDS011;63134;52.020;4.714;2023-04-28T16:09:21;23.08;;;14.57;;
22786;SDS011;63134;52.020;4.714;2023-04-28T16:12:06;32.30;;;16.65;;
22786;SDS011;63134;52.020;4.714;2023-04-28T16:14:52;29.13;;;17.17;;
22786;SDS011;63134;52.020;4.714;2023-04-28T16:17:38;29.50;;;16.35;;
22786;SDS011;63134;52.020;4.714;2023-04-28T16:20:24;20.23;;;10.07;;
22786;SDS011;63134;52.020;4.714;2023-04-28T16:23:10;20.10;;;10.15;;
22786;SDS011;63134;52.020;4.714;2023-04-28T16:25:57;18.95;;;8.95;;
22786;SDS011;63134;52.020;4.714;2023-04-28T16:28:43;20.20;;;8.90;;
22786;SDS011;63134;52.020;4.714;2023-04-28T16:31:29;22.98;;;9.75;;
22786;SDS011;63134;52.020;4.714;2023-04-28T16:34:16;21.80;;;9.50;;
22786;SDS011;63134;52.020;4.714;2023-04-28T16:37:04;18.30;;;9.20;;
22786;SDS011;63134;52.020;4.714;2023-04-28T16:39:50;17.42;;;9.55;;
22786;SDS011;63134;52.020;4.714;2023-04-28T16:42:38;17.73;;;9.98;;
22786;SDS011;63134;52.020;4.714;2023-04-28T16:45:26;19.55;;;10.88;;
22786;SDS011;63134;52.020;4.714;2023-04-28T16:48:16;20.17;;;11.98;;
22786;SDS011;63134;52.020;4.714;2023-04-28T16:51:04;23.52;;;12.82;;
22786;SDS011;63134;52.020;4.714;2023-04-28T16:53:52;20.25;;;11.48;;
22786;SDS011;63134;52.020;4.714;2023-04-28T16:56:39;25.27;;;14.00;;
22786;SDS011;63134;52.020;4.714;2023-04-28T16:59:25;20.05;;;12.05;;
22786;SDS011;63134;52.020;4.714;2023-04-28T17:02:13;15.90;;;8.75;;
22786;SDS011;63134;52.020;4.714;2023-04-28T17:04:59;22.85;;;9.30;;
22786;SDS011;63134;52.020;4.714;2023-04-28T17:07:45;20.65;;;8.90;;
22786;SDS011;63134;52.020;4.714;2023-04-28T17:10:30;15.02;;;7.85;;
22786;SDS011;63134;52.020;4.714;2023-04-28T17:13:16;11.65;;;6.25;;